Francisco De Orellana Airport
SECO : now visible

Airfield :











YOU CAN JOIN US ON...

 
LOGIN :

Register | Disclaimer

   EN    FR    IT 

 









Legend :    VFR   Marginal VFR   IFR   Intensive IFR   Very Intensive IFR
Visi :
Ceiling :
>= 8 km
>= 3000ft
5 to 8 km
1000 to 3000 ft
1500m to 5 km
500 to 1000 ft
800 to 1500m
200 to 500 ft
< 800m
< 200 ft
Symbols :   Thunderstorms  Fog  Heavy snow  Heavy precipitations  Wind > 20 kt






- Airport Elevation : 834 ft
- IATA code : OCC


SECO - Francisco De Orellana

CURRENT METAR :
  • 082000Z 10006KT 9999 FEW020 SCT300 31/25 Q1007 RMK A2974

EXPIRED METARs :
  • 081900Z 15003KT 9999 SCT020 SCT300 31/26 Q1008 RMK A2977
  • 081800Z 19002KT 9999 SCT020 SCT300 30/25 Q1009 RMK A2981

TAF N/A



MET'MAP, your aeronautical weather chart ! - Copyright ORBIFLY December 2007 - Disclaimer

ORBIFLY MET'MAP TEAM :

Programming & Development : Alexandra Zaïnal
Concept & original design : Baudouin d'Aumeries
Assistance for programming : Marc-Olivier Méhu
Technical & hardware support : Manuel Goepfert

Contact : metmap@orbifly.com




SOURCES & CREDITS :

   NOAA       Earth
Advisory